createdAt,value
2019-04-26T00:02:32.103Z,2.20
2019-04-26T00:07:34.255Z,2.00
2019-04-26T00:12:46.610Z,2.00
2019-04-26T00:17:52.347Z,2.30
2019-04-26T00:22:56.587Z,2.70
2019-04-26T00:27:58.633Z,2.17
2019-04-26T00:33:00.673Z,1.93
2019-04-26T00:38:02.775Z,2.63
2019-04-26T00:43:05.098Z,2.17
2019-04-26T00:48:10.422Z,2.20
2019-04-26T00:53:14.969Z,2.70
2019-04-26T00:58:20.352Z,2.60
2019-04-26T01:03:22.834Z,2.10
2019-04-26T01:08:25.478Z,2.50
2019-04-26T01:13:27.737Z,2.47
2019-04-26T01:18:30.081Z,2.63
2019-04-26T01:23:35.778Z,2.97
2019-04-26T01:28:45.601Z,2.53
2019-04-26T01:33:48.447Z,2.43
2019-04-26T01:38:54.097Z,2.70
2019-04-26T01:44:22.740Z,3.07
2019-04-26T01:49:26.197Z,2.77
2019-04-26T01:54:35.049Z,2.50
2019-04-26T01:59:41.884Z,3.27
2019-04-26T02:04:47.241Z,3.67
2019-04-26T02:09:49.324Z,3.30
2019-04-26T02:14:51.389Z,3.20
2019-04-26T02:19:54.900Z,3.60
2019-04-26T02:24:57.125Z,3.30
2019-04-26T02:29:59.891Z,3.43
2019-04-26T02:35:02.442Z,2.97
2019-04-26T02:40:08.704Z,3.67
2019-04-26T02:46:10.397Z,3.50
2019-04-26T02:51:18.039Z,3.57
2019-04-26T02:56:30.273Z,3.10
2019-04-26T03:01:35.638Z,3.10
2019-04-26T03:06:41.159Z,3.33
2019-04-26T03:11:47.976Z,3.33
2019-04-26T03:17:19.220Z,3.17
2019-04-26T03:23:02.073Z,3.50
2019-04-26T03:28:32.673Z,3.33
2019-04-26T03:34:14.853Z,3.53
2019-04-26T03:39:34.657Z,3.70
2019-04-26T03:44:52.982Z,3.40
2019-04-26T03:50:08.991Z,3.97
2019-04-26T03:56:04.668Z,3.77
2019-04-26T04:01:10.050Z,3.50
2019-04-26T04:06:19.365Z,3.53
2019-04-26T04:11:27.552Z,3.87
2019-04-26T04:17:11.549Z,3.60
2019-04-26T04:22:17.226Z,3.07
2019-04-26T04:27:35.220Z,2.97
2019-04-26T04:33:07.340Z,3.20
2019-04-26T04:38:20.605Z,3.23
2019-04-26T04:43:37.954Z,2.60
2019-04-26T04:49:05.471Z,2.80
2019-04-26T04:54:19.770Z,2.20
2019-04-26T04:59:30.662Z,2.43
2019-04-26T05:05:05.891Z,2.47
2019-04-26T05:10:18.389Z,2.70
2019-04-26T05:16:12.772Z,2.63
2019-04-26T05:21:40.423Z,2.87
2019-04-26T05:27:29.743Z,3.07
2019-04-26T05:32:59.212Z,2.60
2019-04-26T05:38:29.533Z,3.58
2019-04-26T05:44:12.887Z,3.00
2019-04-26T05:50:11.924Z,2.50
2019-04-26T05:55:40.701Z,2.30
2019-04-26T06:01:27.078Z,2.67
2019-04-26T06:06:38.622Z,2.30
2019-04-26T06:11:52.865Z,2.67
2019-04-26T06:17:40.945Z,2.02
2019-04-26T06:23:07.908Z,2.00
2019-04-26T06:29:03.370Z,1.92
2019-04-26T06:34:18.355Z,2.08
2019-04-26T06:39:37.851Z,2.20
2019-04-26T06:45:10.545Z,2.00
2019-04-26T06:50:21.660Z,1.82
2019-04-26T06:55:37.429Z,1.95
2019-04-26T07:01:15.320Z,2.02
2019-04-26T07:06:34.556Z,2.10
2019-04-26T07:12:30.583Z,1.70
2019-04-26T07:17:58.476Z,1.85
2019-04-26T07:23:38.253Z,2.00
2019-04-26T07:29:03.095Z,1.82
2019-04-26T07:34:46.803Z,1.85
2019-04-26T07:40:30.263Z,2.30
2019-04-26T07:45:51.200Z,2.08
2019-04-26T07:51:50.285Z,2.37
2019-04-26T07:57:22.496Z,2.00
2019-04-26T08:02:55.747Z,2.20
2019-04-26T08:08:02.414Z,2.27
2019-04-26T08:13:08.585Z,1.87
2019-04-26T08:18:23.880Z,1.57
2019-04-26T08:23:39.476Z,1.90
2019-04-26T08:28:36.952Z,2.00
2019-04-26T08:33:48.711Z,1.65
2019-04-26T08:38:52.594Z,1.98
2019-04-26T08:44:17.268Z,1.72
2019-04-26T08:49:49.248Z,1.57
2019-04-26T08:54:55.164Z,1.55
2019-04-26T09:00:00.226Z,1.50
2019-04-26T09:05:34.139Z,1.20
2019-04-26T09:10:43.183Z,1.02
2019-04-26T09:16:06.041Z,1.55
2019-04-26T09:21:08.425Z,1.30
2019-04-26T09:26:13.680Z,1.20
2019-04-26T09:31:27.784Z,1.25
2019-04-26T09:36:29.892Z,1.30
2019-04-26T09:41:32.195Z,1.20
2019-04-26T09:46:54.216Z,1.30
2019-04-26T09:51:56.927Z,1.30
2019-04-26T09:56:59.027Z,1.20
2019-04-26T10:02:01.127Z,1.30
2019-04-26T10:07:04.191Z,1.60
2019-04-26T10:12:14.616Z,1.20
2019-04-26T10:17:20.875Z,1.37
2019-04-26T10:22:24.637Z,1.30
2019-04-26T10:27:26.699Z,1.37
2019-04-26T10:32:28.748Z,1.20
2019-04-26T10:37:39.235Z,1.25
2019-04-26T10:42:34.827Z,1.30
2019-04-26T10:47:38.500Z,2.42
2019-04-26T10:53:03.132Z,1.40
2019-04-26T10:58:31.928Z,1.60
2019-04-26T11:03:35.208Z,1.62
2019-04-26T11:08:37.367Z,1.40
2019-04-26T11:13:39.447Z,1.40
2019-04-26T11:18:41.587Z,1.20
2019-04-26T11:23:45.474Z,1.47
2019-04-26T11:28:51.447Z,1.60
2019-04-26T11:33:51.719Z,2.20
2019-04-26T11:38:53.763Z,1.50
2019-04-26T11:43:55.941Z,1.60
2019-04-26T11:48:59.308Z,1.67
2019-04-26T11:54:01.837Z,2.52
2019-04-26T11:59:04.267Z,1.90
2019-04-26T12:04:26.067Z,1.57
2019-04-26T12:09:36.508Z,1.60
2019-04-26T12:14:40.370Z,2.75
2019-04-26T12:19:42.437Z,2.22
2019-04-26T12:24:44.630Z,1.80
2019-04-26T12:29:48.246Z,1.90
2019-04-26T12:34:50.789Z,1.72
2019-04-26T12:39:53.286Z,2.00
2019-04-26T12:45:12.174Z,1.87
2019-04-26T12:50:15.726Z,2.00
2019-04-26T12:55:18.447Z,2.17
2019-04-26T13:00:26.144Z,2.40
2019-04-26T13:05:28.319Z,2.67
2019-04-26T13:10:50.058Z,2.27
2019-04-26T13:16:14.674Z,1.82
2019-04-26T13:21:16.949Z,2.15
2019-04-26T13:26:20.751Z,2.60
2019-04-26T13:31:22.820Z,2.60
2019-04-26T13:36:25.238Z,2.77
2019-04-26T13:41:28.032Z,3.35
2019-04-26T13:46:41.794Z,4.10
2019-04-26T13:51:44.241Z,3.98
2019-04-26T13:56:46.352Z,3.60
2019-04-26T14:01:48.459Z,3.40
2019-04-26T14:06:50.517Z,3.87
2019-04-26T14:11:52.635Z,3.60
2019-04-26T14:16:55.841Z,3.27
2019-04-26T14:21:58.704Z,4.87
2019-04-26T14:27:04.128Z,3.47
2019-04-26T14:32:06.289Z,4.55
2019-04-26T14:37:11.135Z,4.37
2019-04-26T14:42:12.281Z,5.28
2019-04-26T14:47:17.738Z,4.10
2019-04-26T14:52:18.385Z,4.50
2019-04-26T14:57:26.640Z,4.60
2019-04-26T15:02:48.553Z,4.78
2019-04-26T15:07:53.568Z,5.60
2019-04-26T15:13:05.834Z,4.83
2019-04-26T15:17:59.657Z,5.42
2019-04-26T15:23:03.210Z,5.35
2019-04-26T15:28:06.814Z,5.60
2019-04-26T15:33:12.872Z,6.45
2019-04-26T15:38:13.331Z,6.07
2019-04-26T15:43:23.813Z,8.13
2019-04-26T15:48:32.236Z,6.87
2019-04-26T15:53:34.414Z,7.33
2019-04-26T15:58:38.110Z,8.00
2019-04-26T16:03:40.844Z,5.67
2019-04-26T16:08:44.640Z,6.10
2019-04-26T16:13:54.242Z,6.03
2019-04-26T16:18:55.545Z,6.47
2019-04-26T16:23:55.362Z,6.00
2019-04-26T16:29:18.393Z,7.80
2019-04-26T16:34:23.399Z,5.87
2019-04-26T16:39:32.345Z,6.20
2019-04-26T16:44:31.479Z,6.00
2019-04-26T16:49:40.809Z,5.10
2019-04-26T16:54:37.658Z,4.87
2019-04-26T16:59:47.482Z,4.57
2019-04-26T17:04:44.074Z,4.73
2019-04-26T17:10:03.161Z,5.67
2019-04-26T17:14:53.436Z,4.20
2019-04-26T17:19:55.573Z,4.70
2019-04-26T17:25:29.706Z,4.20
2019-04-26T17:30:34.511Z,3.43
2019-04-26T17:35:36.710Z,3.23
2019-04-26T17:40:41.821Z,4.30
2019-04-26T17:45:44.329Z,3.10
2019-04-26T17:50:46.390Z,2.60
2019-04-26T17:55:53.027Z,2.33
2019-04-26T18:00:56.400Z,2.00
2019-04-26T18:05:57.716Z,1.93
2019-04-26T18:11:00.879Z,1.80
2019-04-26T18:16:03.679Z,1.50
2019-04-26T18:21:36.847Z,1.97
2019-04-26T18:26:39.038Z,1.40
2019-04-26T18:31:41.354Z,1.20
2019-04-26T18:36:43.429Z,1.50
2019-04-26T18:41:45.490Z,1.37
2019-04-26T18:47:05.944Z,1.40
2019-04-26T18:52:08.922Z,3.03
2019-04-26T18:57:15.611Z,3.77
2019-04-26T19:02:18.651Z,4.20
2019-04-26T19:07:31.509Z,3.70
2019-04-26T19:12:26.964Z,4.07
2019-04-26T19:17:51.505Z,3.53
2019-04-26T19:23:00.944Z,4.20
2019-04-26T19:28:08.151Z,3.87
2019-04-26T19:33:16.592Z,2.70
2019-04-26T19:38:16.146Z,2.37
2019-04-26T19:43:30.232Z,1.90
2019-04-26T19:48:37.824Z,2.43
2019-04-26T19:53:47.290Z,2.00
2019-04-26T19:58:57.478Z,1.73
2019-04-26T20:03:55.449Z,1.63
2019-04-26T20:08:57.767Z,1.60
2019-04-26T20:14:01.428Z,1.90
2019-04-26T20:19:04.013Z,2.33
2019-04-26T20:24:06.087Z,1.77
2019-04-26T20:29:10.173Z,2.33
2019-04-26T20:34:14.409Z,1.83
2019-04-26T20:39:20.935Z,1.60
2019-04-26T20:44:23.832Z,2.00
2019-04-26T20:49:24.870Z,1.90
2019-04-26T20:54:27.174Z,1.50
2019-04-26T20:59:29.340Z,1.90
2019-04-26T21:04:37.923Z,1.57
2019-04-26T21:09:36.426Z,1.73
2019-04-26T21:14:44.580Z,1.50
2019-04-26T21:19:43.391Z,1.60
2019-04-26T21:24:50.637Z,2.73
2019-04-26T21:30:09.983Z,1.70
2019-04-26T21:35:14.257Z,2.03
2019-04-26T21:40:31.095Z,2.37
2019-04-26T21:45:34.020Z,2.80
2019-04-26T21:50:38.956Z,2.50
2019-04-26T21:55:40.209Z,2.53
2019-04-26T22:01:03.026Z,2.40
2019-04-26T22:06:06.431Z,2.40
2019-04-26T22:11:08.524Z,2.20
2019-04-26T22:16:33.944Z,2.70
2019-04-26T22:21:36.084Z,2.40
2019-04-26T22:26:44.453Z,2.43
2019-04-26T22:31:42.618Z,3.03
2019-04-26T22:36:44.740Z,2.13
2019-04-26T22:41:46.870Z,3.00
2019-04-26T22:47:06.898Z,2.90
2019-04-26T22:52:11.116Z,3.30
2019-04-26T22:57:16.224Z,4.20
2019-04-26T23:02:26.262Z,5.23
2019-04-26T23:07:26.143Z,4.80
2019-04-26T23:12:53.949Z,5.10
2019-04-26T23:18:21.474Z,6.77
2019-04-26T23:23:23.769Z,5.83
2019-04-26T23:28:27.741Z,7.77
2019-04-26T23:33:29.964Z,6.50
2019-04-26T23:38:34.507Z,5.73
2019-04-26T23:43:35.990Z,5.47
2019-04-26T23:48:38.058Z,5.57
2019-04-26T23:53:40.166Z,5.13
2019-04-26T23:58:44.169Z,5.00
